createdAt,value
2023-03-08T00:01:10.674Z,7.95
2023-03-08T00:03:38.005Z,7.57
2023-03-08T00:06:05.492Z,7.70
2023-03-08T00:08:34.992Z,10.48
2023-03-08T00:11:05.488Z,8.50
2023-03-08T00:13:34.190Z,6.57
2023-03-08T00:16:02.116Z,8.45
2023-03-08T00:18:29.427Z,9.45
2023-03-08T00:21:00.557Z,9.80
2023-03-08T00:23:27.906Z,9.32
2023-03-08T00:25:55.412Z,8.93
2023-03-08T00:28:22.831Z,8.65
2023-03-08T00:30:57.026Z,9.30
2023-03-08T00:33:25.480Z,9.43
2023-03-08T00:35:56.357Z,9.70
2023-03-08T00:38:23.774Z,10.10
2023-03-08T00:40:51.106Z,7.93
2023-03-08T00:43:18.635Z,7.43
2023-03-08T00:45:46.007Z,8.77
2023-03-08T00:48:14.843Z,9.73
2023-03-08T00:50:42.199Z,9.50
2023-03-08T00:53:09.491Z,10.23
2023-03-08T00:55:36.843Z,10.73
2023-03-08T00:58:04.222Z,10.68
2023-03-08T01:00:31.986Z,10.63
2023-03-08T01:02:59.310Z,9.75
2023-03-08T01:05:27.983Z,9.95
2023-03-08T01:07:55.287Z,10.45
2023-03-08T01:10:22.627Z,9.60
2023-03-08T01:12:49.960Z,9.30
2023-03-08T01:15:17.466Z,9.02
2023-03-08T01:17:44.792Z,9.60
2023-03-08T01:20:12.576Z,9.00
2023-03-08T01:22:41.219Z,9.02
2023-03-08T01:25:08.887Z,7.88
2023-03-08T01:27:36.192Z,9.90
2023-03-08T01:30:03.536Z,9.55
2023-03-08T01:32:30.881Z,8.70
2023-03-08T01:35:03.166Z,9.40
2023-03-08T01:37:30.522Z,9.68
2023-03-08T01:39:59.222Z,9.32
2023-03-08T01:42:26.809Z,8.10
2023-03-08T01:44:55.140Z,10.00
2023-03-08T01:47:23.057Z,8.05
2023-03-08T01:49:50.927Z,8.68
2023-03-08T01:52:20.600Z,8.70
2023-03-08T01:54:48.983Z,9.15
2023-03-08T01:57:18.962Z,8.57
2023-03-08T01:59:47.595Z,8.60
2023-03-08T02:05:04.551Z,8.63
2023-03-08T02:07:31.915Z,8.32
2023-03-08T02:09:59.449Z,7.78
2023-03-08T02:12:28.186Z,8.15
2023-03-08T02:14:56.922Z,7.82
2023-03-08T02:17:24.220Z,7.28
2023-03-08T02:19:53.508Z,7.65
2023-03-08T02:22:20.922Z,7.25
2023-03-08T02:24:49.714Z,7.85
2023-03-08T02:27:18.750Z,6.38
2023-03-08T02:29:46.358Z,7.20
2023-03-08T02:32:13.842Z,7.43
2023-03-08T02:34:41.164Z,7.10
2023-03-08T02:37:08.484Z,6.78
2023-03-08T02:39:35.791Z,7.15
2023-03-08T02:42:04.536Z,4.57
2023-03-08T02:44:31.846Z,7.03
2023-03-08T02:46:59.236Z,5.90
2023-03-08T02:49:26.545Z,7.25
2023-03-08T02:51:53.862Z,7.93
2023-03-08T02:54:21.275Z,8.23
2023-03-08T02:56:48.563Z,8.45
2023-03-08T02:59:17.218Z,8.77
2023-03-08T03:01:44.691Z,8.73
2023-03-08T03:04:12.047Z,9.88
2023-03-08T03:06:39.424Z,9.25
2023-03-08T03:09:07.314Z,9.48
2023-03-08T03:11:34.652Z,9.55
2023-03-08T03:14:02.001Z,9.88
2023-03-08T03:16:30.677Z,9.68
2023-03-08T03:18:57.968Z,10.45
2023-03-08T03:21:25.803Z,10.20
2023-03-08T03:23:54.735Z,10.70
2023-03-08T03:26:22.736Z,11.32
2023-03-08T03:28:50.186Z,10.05
2023-03-08T03:31:18.683Z,10.52
2023-03-08T03:33:47.559Z,10.10
2023-03-08T03:36:16.022Z,10.10
2023-03-08T03:38:44.332Z,10.32
2023-03-08T03:41:12.757Z,9.65
2023-03-08T03:43:40.253Z,11.80
2023-03-08T03:46:08.693Z,12.55
2023-03-08T03:48:36.726Z,13.80
2023-03-08T03:51:06.465Z,14.15
2023-03-08T03:53:34.353Z,14.23
2023-03-08T03:56:03.014Z,17.58
2023-03-08T03:58:30.282Z,19.42
2023-03-08T04:00:57.534Z,20.17
2023-03-08T04:03:25.069Z,20.02
2023-03-08T04:05:52.443Z,20.75
2023-03-08T04:08:21.220Z,19.95
2023-03-08T04:10:48.555Z,17.40
2023-03-08T04:13:16.049Z,17.65
2023-03-08T04:15:43.485Z,18.13
2023-03-08T04:18:10.828Z,20.60
2023-03-08T04:20:38.117Z,21.40
2023-03-08T04:23:05.495Z,22.73
2023-03-08T04:25:34.168Z,22.15
2023-03-08T04:28:01.543Z,23.05
2023-03-08T04:30:29.666Z,23.15
2023-03-08T04:32:57.007Z,18.75
2023-03-08T04:35:24.300Z,20.85
2023-03-08T04:37:51.609Z,21.98
2023-03-08T04:40:21.416Z,23.52
2023-03-08T04:42:50.100Z,23.65
2023-03-08T04:45:17.410Z,23.73
2023-03-08T04:47:44.715Z,25.25
2023-03-08T04:50:12.536Z,24.33
2023-03-08T04:52:39.858Z,26.10
2023-03-08T04:55:07.915Z,27.13
2023-03-08T04:57:36.020Z,28.17
2023-03-08T05:00:05.771Z,29.10
2023-03-08T05:02:33.624Z,30.63
2023-03-08T05:05:01.047Z,30.50
2023-03-08T05:07:28.650Z,24.98
2023-03-08T05:09:55.972Z,25.33
2023-03-08T05:12:23.239Z,28.80
2023-03-08T05:14:50.680Z,26.55
2023-03-08T05:17:20.404Z,24.27
2023-03-08T05:19:47.804Z,23.40
2023-03-08T05:22:15.116Z,23.83
2023-03-08T05:24:42.407Z,25.95
2023-03-08T05:27:09.748Z,24.75
2023-03-08T05:29:37.177Z,25.38
2023-03-08T05:32:05.952Z,27.48
2023-03-08T05:34:34.665Z,29.10
2023-03-08T05:37:02.241Z,27.15
2023-03-08T05:39:30.144Z,25.38
2023-03-08T05:41:57.478Z,24.67
2023-03-08T05:44:24.878Z,24.63
2023-03-08T05:46:52.296Z,24.15
2023-03-08T05:49:19.932Z,24.27
2023-03-08T05:51:48.931Z,22.75
2023-03-08T05:54:16.284Z,24.42
2023-03-08T05:56:43.668Z,24.75
2023-03-08T05:59:11.005Z,23.58
2023-03-08T06:01:38.476Z,25.50
2023-03-08T06:04:06.230Z,26.40
2023-03-08T06:06:35.018Z,26.05
2023-03-08T06:09:04.148Z,26.25
2023-03-08T06:11:31.438Z,28.85
2023-03-08T06:13:58.788Z,25.70
2023-03-08T06:16:26.114Z,27.10
2023-03-08T06:18:53.471Z,27.08
2023-03-08T06:21:21.788Z,26.90
2023-03-08T06:23:49.151Z,24.95
2023-03-08T06:26:17.835Z,27.15
2023-03-08T06:28:45.464Z,25.30
2023-03-08T06:31:13.989Z,28.75
2023-03-08T06:33:41.366Z,28.13
2023-03-08T06:36:09.940Z,29.48
2023-03-08T06:38:38.377Z,29.42
2023-03-08T06:41:06.001Z,28.63
2023-03-08T06:43:35.623Z,31.67
2023-03-08T06:46:04.382Z,30.27
2023-03-08T06:48:31.889Z,31.73
2023-03-08T06:50:59.317Z,28.73
2023-03-08T06:53:26.762Z,28.88
2023-03-08T06:55:54.107Z,28.55
2023-03-08T06:58:21.470Z,26.98
2023-03-08T07:00:51.018Z,28.13
2023-03-08T07:03:18.370Z,27.23
2023-03-08T07:05:45.650Z,26.48
2023-03-08T07:08:13.033Z,25.00
2023-03-08T07:10:40.321Z,24.10
2023-03-08T07:13:07.630Z,26.25
2023-03-08T07:15:34.964Z,26.55
2023-03-08T07:18:03.689Z,27.05
2023-03-08T07:20:31.092Z,27.40
2023-03-08T07:23:01.504Z,25.83
2023-03-08T07:25:29.133Z,26.00
2023-03-08T07:27:56.507Z,26.73
2023-03-08T07:30:23.800Z,26.25
2023-03-08T07:32:53.853Z,26.13
2023-03-08T07:35:22.592Z,25.52
2023-03-08T07:37:49.943Z,25.40
2023-03-08T07:40:17.947Z,26.65
2023-03-08T07:42:45.372Z,27.10
2023-03-08T07:45:13.190Z,27.38
2023-03-08T07:47:43.063Z,28.52
2023-03-08T07:50:12.450Z,28.00
2023-03-08T07:52:41.129Z,28.58
2023-03-08T07:55:08.988Z,30.48
2023-03-08T07:57:36.324Z,29.13
2023-03-08T08:00:07.430Z,29.77
2023-03-08T08:02:34.967Z,31.30
2023-03-08T08:05:02.408Z,32.40
2023-03-08T08:07:29.716Z,32.10
2023-03-08T08:09:58.436Z,30.25
2023-03-08T08:12:25.816Z,30.55
2023-03-08T08:14:53.273Z,33.92
2023-03-08T08:17:20.933Z,32.70
2023-03-08T08:19:48.786Z,31.83
2023-03-08T08:22:16.349Z,34.22
2023-03-08T08:24:43.764Z,33.28
2023-03-08T08:27:14.870Z,35.30
2023-03-08T08:29:45.975Z,33.38
2023-03-08T08:32:13.348Z,34.63
2023-03-08T08:34:40.700Z,31.80
2023-03-08T08:37:07.966Z,32.78
2023-03-08T08:39:35.342Z,32.30
2023-03-08T08:42:03.503Z,33.03
2023-03-08T08:44:32.401Z,31.67
2023-03-08T08:46:59.828Z,31.45
2023-03-08T08:49:27.314Z,31.83
2023-03-08T08:51:54.619Z,34.53
2023-03-08T08:54:21.950Z,32.83
2023-03-08T08:56:49.289Z,34.80
2023-03-08T08:59:17.189Z,34.60
2023-03-08T09:01:46.872Z,35.58
2023-03-08T09:04:14.596Z,35.17
2023-03-08T09:06:42.029Z,34.17
2023-03-08T09:09:09.794Z,33.95
2023-03-08T09:11:48.479Z,33.55
2023-03-08T09:14:20.931Z,33.72
2023-03-08T09:16:49.792Z,34.20
2023-03-08T09:19:17.239Z,33.35
2023-03-08T09:21:44.601Z,34.40
2023-03-08T09:24:12.424Z,32.70
2023-03-08T09:26:39.839Z,34.78
2023-03-08T09:29:07.562Z,36.47
2023-03-08T09:31:36.784Z,34.25
2023-03-08T09:34:08.561Z,35.90
2023-03-08T09:36:36.598Z,36.95
2023-03-08T09:39:05.190Z,38.13
2023-03-08T09:41:40.390Z,40.13
2023-03-08T09:44:13.451Z,39.35
2023-03-08T09:46:42.578Z,38.15
2023-03-08T09:49:14.284Z,38.92
2023-03-08T09:51:42.900Z,39.70
2023-03-08T09:54:12.708Z,41.40
2023-03-08T09:56:42.831Z,38.72
2023-03-08T09:59:13.315Z,40.55
2023-03-08T10:01:45.892Z,36.72
2023-03-08T10:04:27.773Z,41.97
2023-03-08T10:07:06.769Z,37.50
2023-03-08T10:09:37.068Z,38.35
2023-03-08T10:12:13.492Z,39.55
2023-03-08T10:14:42.505Z,35.67
2023-03-08T10:17:12.983Z,40.40
2023-03-08T10:19:44.165Z,40.35
2023-03-08T10:22:15.582Z,41.15
2023-03-08T10:24:46.548Z,37.58
2023-03-08T10:27:17.072Z,40.10
2023-03-08T10:29:48.921Z,42.13
2023-03-08T10:32:16.303Z,38.28
2023-03-08T10:34:45.085Z,41.95
2023-03-08T10:37:12.631Z,42.30
2023-03-08T10:39:52.509Z,40.90
2023-03-08T10:42:21.302Z,44.22
2023-03-08T10:44:53.825Z,43.35
2023-03-08T10:47:22.631Z,43.53
2023-03-08T10:50:03.474Z,44.42
2023-03-08T10:52:30.786Z,45.97
2023-03-08T10:55:01.794Z,46.95
2023-03-08T10:57:29.389Z,46.97
2023-03-08T10:59:58.692Z,46.28
2023-03-08T11:02:26.033Z,47.78
2023-03-08T11:04:55.485Z,47.40
2023-03-08T11:07:25.540Z,48.33
2023-03-08T11:09:52.831Z,47.35
2023-03-08T11:12:24.477Z,48.35
2023-03-08T11:14:52.138Z,44.58
2023-03-08T11:17:22.498Z,46.28
2023-03-08T11:19:59.989Z,47.00
2023-03-08T11:22:37.380Z,37.95
2023-03-08T11:25:12.244Z,47.08
2023-03-08T11:27:47.459Z,45.63
2023-03-08T11:30:19.815Z,46.13
2023-03-08T11:32:53.886Z,44.28
2023-03-08T11:35:25.504Z,44.83
2023-03-08T11:37:57.874Z,49.83
2023-03-08T11:40:26.250Z,47.30
2023-03-08T11:43:00.035Z,46.38
2023-03-08T11:45:29.379Z,49.43
2023-03-08T11:48:12.571Z,48.60
2023-03-08T11:50:43.982Z,44.67
2023-03-08T11:53:15.502Z,42.25
2023-03-08T11:56:03.748Z,46.13
2023-03-08T11:58:33.589Z,44.45
2023-03-08T12:01:01.646Z,43.47
2023-03-08T12:03:31.989Z,44.05
2023-03-08T12:06:06.423Z,39.22
2023-03-08T12:08:39.467Z,38.95
2023-03-08T12:11:10.377Z,40.58
2023-03-08T12:13:39.349Z,43.50
2023-03-08T12:16:10.795Z,36.58
2023-03-08T12:18:41.227Z,38.92
2023-03-08T12:21:14.451Z,37.85
2023-03-08T12:23:45.650Z,38.10
2023-03-08T12:26:18.211Z,35.58
2023-03-08T12:28:47.726Z,32.97
2023-03-08T12:31:27.926Z,35.70
2023-03-08T12:33:56.627Z,35.60
2023-03-08T12:36:36.570Z,35.95
2023-03-08T12:39:07.044Z,34.83
2023-03-08T12:41:34.415Z,35.63
2023-03-08T12:44:03.101Z,35.97
2023-03-08T12:46:56.328Z,35.20
2023-03-08T12:49:31.029Z,31.67
2023-03-08T12:52:03.969Z,31.80
2023-03-08T12:54:32.641Z,33.65
2023-03-08T12:57:01.056Z,33.08
2023-03-08T12:59:38.566Z,29.88
2023-03-08T13:02:30.651Z,29.55
2023-03-08T13:05:05.700Z,31.55
2023-03-08T13:07:37.078Z,34.28
2023-03-08T13:10:07.979Z,30.33
2023-03-08T13:12:39.060Z,30.42
2023-03-08T13:15:22.026Z,31.15
2023-03-08T13:17:50.569Z,32.90
2023-03-08T13:20:20.776Z,31.10
2023-03-08T13:22:57.701Z,31.35
2023-03-08T13:25:32.686Z,29.88
2023-03-08T13:28:04.739Z,28.63
2023-03-08T13:30:34.953Z,32.15
2023-03-08T13:33:07.136Z,30.52
2023-03-08T13:35:34.463Z,30.10
2023-03-08T13:38:03.121Z,32.20
2023-03-08T13:40:31.350Z,30.98
2023-03-08T13:42:59.556Z,29.85
2023-03-08T13:45:27.383Z,31.52
2023-03-08T13:47:55.419Z,28.30
2023-03-08T13:50:28.138Z,29.15
2023-03-08T13:52:55.761Z,29.33
2023-03-08T13:55:28.150Z,30.88
2023-03-08T13:58:05.338Z,29.88
2023-03-08T14:00:34.098Z,30.70
2023-03-08T14:03:02.210Z,31.73
2023-03-08T14:05:30.611Z,34.33
2023-03-08T14:07:59.942Z,34.45
2023-03-08T14:10:32.603Z,33.75
2023-03-08T14:13:00.210Z,33.70
2023-03-08T14:15:27.662Z,31.73
2023-03-08T14:17:55.050Z,31.55
2023-03-08T14:20:23.572Z,31.02
2023-03-08T14:22:52.172Z,30.60
2023-03-08T14:25:27.326Z,31.25
2023-03-08T14:27:56.349Z,29.77
2023-03-08T14:30:24.532Z,27.13
2023-03-08T14:32:56.685Z,30.90
2023-03-08T14:35:25.384Z,31.75
2023-03-08T14:37:55.846Z,29.23
2023-03-08T14:40:33.556Z,30.73
2023-03-08T14:43:04.778Z,31.85
2023-03-08T14:45:36.591Z,31.50
2023-03-08T14:48:16.712Z,31.90
2023-03-08T14:50:52.666Z,31.75
2023-03-08T14:53:26.510Z,30.23
2023-03-08T14:55:53.818Z,31.07
2023-03-08T14:58:24.870Z,30.77
2023-03-08T15:00:53.162Z,31.88
2023-03-08T15:03:20.471Z,32.20
2023-03-08T15:05:47.891Z,33.45
2023-03-08T15:08:15.872Z,33.50
2023-03-08T15:10:43.688Z,33.45
2023-03-08T15:13:13.164Z,32.28
2023-03-08T15:15:41.832Z,32.10
2023-03-08T15:18:09.349Z,30.83
2023-03-08T15:20:38.690Z,32.38
2023-03-08T15:23:07.564Z,31.08
2023-03-08T15:25:35.793Z,30.17
2023-03-08T15:28:03.693Z,28.88
2023-03-08T15:30:32.300Z,29.67
2023-03-08T15:33:02.067Z,29.58
2023-03-08T15:35:30.411Z,31.38
2023-03-08T15:37:58.035Z,33.28
2023-03-08T15:40:26.314Z,35.83
2023-03-08T15:42:53.726Z,34.88
2023-03-08T15:45:21.188Z,32.92
2023-03-08T15:47:56.127Z,31.88
2023-03-08T15:50:25.160Z,31.23
2023-03-08T15:52:54.290Z,28.08
2023-03-08T15:55:21.928Z,33.85
2023-03-08T15:57:49.374Z,28.75
2023-03-08T16:00:17.599Z,29.58
2023-03-08T16:02:44.985Z,28.95
2023-03-08T16:05:13.296Z,27.65
2023-03-08T16:07:42.095Z,29.02
2023-03-08T16:10:11.022Z,28.27
2023-03-08T16:12:38.682Z,28.23
2023-03-08T16:15:06.717Z,29.17
2023-03-08T16:17:34.137Z,27.90
2023-03-08T16:20:01.478Z,29.00
2023-03-08T16:22:29.108Z,27.08
2023-03-08T16:24:57.771Z,28.30
2023-03-08T16:27:25.127Z,28.40
2023-03-08T16:29:53.044Z,26.63
2023-03-08T16:32:21.541Z,26.58
2023-03-08T16:34:50.896Z,26.80
2023-03-08T16:37:19.492Z,26.10
2023-03-08T16:39:47.176Z,27.00
2023-03-08T16:42:16.195Z,26.70
2023-03-08T16:44:48.789Z,25.42
2023-03-08T16:47:16.305Z,26.35
2023-03-08T16:49:43.654Z,23.25
2023-03-08T16:52:11.032Z,26.70
2023-03-08T16:54:38.397Z,25.80
2023-03-08T16:57:18.259Z,25.88
2023-03-08T16:59:48.321Z,26.55
2023-03-08T17:02:16.372Z,25.02
2023-03-08T17:04:43.713Z,27.10
2023-03-08T17:07:11.294Z,27.48
2023-03-08T17:09:39.088Z,27.85
2023-03-08T17:12:07.371Z,27.08
2023-03-08T17:14:35.001Z,29.05
2023-03-08T17:17:04.007Z,28.70
2023-03-08T17:19:31.343Z,30.27
2023-03-08T17:21:58.756Z,30.75
2023-03-08T17:24:27.722Z,28.50
2023-03-08T17:26:55.104Z,31.00
2023-03-08T17:29:22.477Z,33.03
2023-03-08T17:31:50.144Z,29.83
2023-03-08T17:34:20.758Z,30.15
2023-03-08T17:36:48.114Z,32.83
2023-03-08T17:39:15.428Z,30.25
2023-03-08T17:41:42.828Z,31.33
2023-03-08T17:44:10.192Z,31.95
2023-03-08T17:46:37.560Z,29.40
2023-03-08T17:49:05.549Z,31.17
2023-03-08T17:51:34.666Z,32.17
2023-03-08T17:54:02.978Z,32.05
2023-03-08T17:56:31.459Z,32.40
2023-03-08T17:59:00.816Z,33.78
2023-03-08T18:01:29.568Z,36.53
2023-03-08T18:03:57.583Z,47.83
2023-03-08T18:06:28.007Z,58.45
2023-03-08T18:08:56.703Z,43.15
2023-03-08T18:11:24.096Z,43.22
2023-03-08T18:13:51.538Z,45.97
2023-03-08T18:16:19.519Z,42.78
2023-03-08T18:18:49.395Z,39.47
2023-03-08T18:21:17.506Z,36.08
2023-03-08T18:23:44.968Z,32.47
2023-03-08T18:26:14.420Z,34.90
2023-03-08T18:28:41.752Z,39.80
2023-03-08T18:31:09.462Z,39.88
2023-03-08T18:33:36.847Z,37.38
2023-03-08T18:36:06.216Z,35.63
2023-03-08T18:38:34.125Z,47.70
2023-03-08T18:41:01.457Z,48.78
2023-03-08T18:43:30.865Z,44.90
2023-03-08T18:45:58.175Z,39.63
2023-03-08T18:48:30.813Z,41.20
2023-03-08T18:51:00.567Z,42.85
2023-03-08T18:53:30.357Z,43.90
2023-03-08T18:55:58.481Z,40.28
2023-03-08T18:58:26.089Z,38.70
2023-03-08T19:00:56.807Z,44.58
2023-03-08T19:03:24.178Z,40.40
2023-03-08T19:05:51.539Z,39.92
2023-03-08T19:08:18.883Z,41.45
2023-03-08T19:10:46.201Z,37.78
2023-03-08T19:13:13.469Z,41.10
2023-03-08T19:15:41.211Z,44.17
2023-03-08T19:18:10.963Z,41.90
2023-03-08T19:20:39.084Z,40.08
2023-03-08T19:23:06.439Z,40.42
2023-03-08T19:25:34.025Z,44.60
2023-03-08T19:28:01.673Z,42.80
2023-03-08T19:30:29.449Z,41.80
2023-03-08T19:32:56.876Z,41.63
2023-03-08T19:35:25.627Z,40.13
2023-03-08T19:37:52.951Z,38.60
2023-03-08T19:40:20.319Z,39.80
2023-03-08T19:42:47.621Z,41.75
2023-03-08T19:45:14.938Z,41.30
2023-03-08T19:47:42.235Z,42.58
2023-03-08T19:50:13.031Z,40.65
2023-03-08T19:52:41.704Z,44.78
2023-03-08T19:55:09.492Z,44.42
2023-03-08T19:57:37.416Z,44.47
2023-03-08T20:00:06.286Z,44.30
2023-03-08T20:02:33.635Z,45.42
2023-03-08T20:05:01.057Z,45.75
2023-03-08T20:07:28.368Z,47.15
2023-03-08T20:10:04.607Z,47.08
2023-03-08T20:12:37.754Z,46.10
2023-03-08T20:15:05.459Z,49.42
2023-03-08T20:17:33.526Z,48.47
2023-03-08T20:20:00.889Z,45.10
2023-03-08T20:22:28.183Z,52.05
2023-03-08T20:24:56.805Z,49.03
2023-03-08T20:27:24.110Z,51.72
2023-03-08T20:29:52.854Z,52.58
2023-03-08T20:32:20.179Z,52.50
2023-03-08T20:34:47.532Z,55.88
2023-03-08T20:37:14.874Z,50.70
2023-03-08T20:39:42.609Z,45.85
2023-03-08T20:42:11.282Z,46.08
2023-03-08T20:44:38.609Z,45.42
2023-03-08T20:47:06.224Z,42.92
2023-03-08T20:49:33.506Z,44.78
2023-03-08T20:52:00.848Z,50.33
2023-03-08T20:54:28.202Z,48.78
2023-03-08T20:56:55.607Z,40.85
2023-03-08T20:59:26.700Z,47.55
2023-03-08T21:01:54.135Z,48.58
2023-03-08T21:04:21.988Z,47.58
2023-03-08T21:06:49.514Z,46.90
2023-03-08T21:09:16.984Z,47.63
2023-03-08T21:11:45.063Z,49.25
2023-03-08T21:14:12.485Z,48.72
2023-03-08T21:16:41.160Z,49.45
2023-03-08T21:19:08.495Z,48.72
2023-03-08T21:21:37.190Z,50.42
2023-03-08T21:24:05.672Z,49.95
2023-03-08T21:26:33.378Z,53.17
2023-03-08T21:29:02.133Z,48.50
2023-03-08T21:31:29.711Z,52.65
2023-03-08T21:33:58.572Z,52.20
2023-03-08T21:36:25.900Z,51.80
2023-03-08T21:38:53.890Z,54.17
2023-03-08T21:41:21.983Z,55.83
2023-03-08T21:43:49.537Z,53.95
2023-03-08T21:46:17.143Z,47.20
2023-03-08T21:48:44.652Z,64.68
2023-03-08T21:51:13.684Z,54.97
2023-03-08T21:53:41.232Z,58.10
2023-03-08T21:56:09.062Z,54.13
2023-03-08T21:58:36.778Z,59.85
2023-03-08T22:01:04.485Z,57.13
2023-03-08T22:03:33.199Z,55.28
2023-03-08T22:06:00.998Z,62.28
2023-03-08T22:08:29.704Z,51.40
2023-03-08T22:10:57.015Z,56.30
2023-03-08T22:13:24.344Z,57.05
2023-03-08T22:15:51.699Z,51.90
2023-03-08T22:18:19.038Z,48.72
2023-03-08T22:20:46.369Z,53.25
2023-03-08T22:23:13.729Z,57.22
2023-03-08T22:25:42.547Z,59.28
2023-03-08T22:28:09.870Z,58.88
2023-03-08T22:30:37.185Z,57.83
2023-03-08T22:33:04.515Z,60.47
2023-03-08T22:35:32.082Z,60.50
2023-03-08T22:37:59.396Z,59.22
2023-03-08T22:40:26.690Z,59.15
2023-03-08T22:42:55.384Z,49.53
2023-03-08T22:45:22.730Z,68.63
2023-03-08T22:47:51.702Z,63.72
2023-03-08T22:50:19.090Z,57.28
2023-03-08T22:52:46.421Z,61.45
2023-03-08T22:55:13.727Z,60.05
2023-03-08T22:57:41.027Z,63.40
2023-03-08T23:00:14.220Z,50.88
2023-03-08T23:02:41.691Z,62.88
2023-03-08T23:05:11.830Z,61.33
2023-03-08T23:07:39.147Z,61.50
2023-03-08T23:10:06.928Z,64.20
2023-03-08T23:12:34.239Z,64.50
2023-03-08T23:15:01.614Z,71.75
2023-03-08T23:17:30.272Z,65.65
2023-03-08T23:19:58.144Z,66.55
2023-03-08T23:22:25.714Z,61.95
2023-03-08T23:24:53.062Z,52.78
2023-03-08T23:27:20.650Z,53.35
2023-03-08T23:29:47.975Z,58.00
2023-03-08T23:32:15.343Z,65.22
2023-03-08T23:34:44.048Z,53.95
2023-03-08T23:37:11.365Z,56.05
2023-03-08T23:39:38.742Z,50.42
2023-03-08T23:42:06.793Z,52.92
2023-03-08T23:44:34.140Z,55.70
2023-03-08T23:47:01.440Z,58.17
2023-03-08T23:49:28.748Z,56.25
2023-03-08T23:51:57.408Z,53.13
2023-03-08T23:54:24.727Z,48.65
2023-03-08T23:56:52.131Z,50.58
2023-03-08T23:59:20.735Z,55.80
